Time;durP1;ratioP1;P1;durP2;ratioP2;P2;SDS_P1;SDS_P2;PMS_P1;PMS_P2;Temp;Humidity;BMP_temperature;BMP_pressure;BME280_temperature;BME280_humidity;BME280_pressure;Samples;Min_cycle;Max_cycle;Signal;HPM_P1;HPM_P2
2021/07/26 00:01:44;;;;;;;18.52;13.77;;;;;;;;;;5093006;28;20074;-71
2021/07/26 00:04:10;;;;;;;19.65;13.48;;;;;;;;;;5092999;28;20028;-70
2021/07/26 00:06:37;;;;;;;21.85;14.45;;;;;;;;;;5091526;28;20471;-71
2021/07/26 00:09:03;;;;;;;18.55;14.15;;;;;;;;;;5092832;28;20051;-72
2021/07/26 00:11:29;;;;;;;21.40;14.95;;;;;;;;;;5092990;28;20020;-70
2021/07/26 00:13:55;;;;;;;18.67;14.18;;;;;;;;;;5092811;28;20016;-70
2021/07/26 00:16:21;;;;;;;16.63;14.82;;;;;;;;;;5092588;28;20020;-71
2021/07/26 00:18:47;;;;;;;22.92;15.75;;;;;;;;;;5092647;28;20027;-71
2021/07/26 00:21:13;;;;;;;22.30;14.20;;;;;;;;;;5091991;28;20445;-71
2021/07/26 00:23:39;;;;;;;20.35;14.98;;;;;;;;;;5091881;28;20509;-71
2021/07/26 00:26:06;;;;;;;20.08;15.90;;;;;;;;;;5091598;28;20020;-70
2021/07/26 00:28:32;;;;;;;17.13;15.27;;;;;;;;;;5091266;28;20020;-69
2021/07/26 00:30:58;;;;;;;20.38;15.38;;;;;;;;;;5091243;28;20032;-70
2021/07/26 00:33:49;;;;;;;18.55;15.02;;;;;;;;;;5090303;28;20020;-71
2021/07/26 00:36:15;;;;;;;21.70;14.10;;;;;;;;;;5092314;28;20467;-71
2021/07/26 00:38:41;;;;;;;18.25;14.27;;;;;;;;;;5092432;28;20036;-71
2021/07/26 00:41:08;;;;;;;19.52;14.50;;;;;;;;;;5092123;28;20035;-70
2021/07/26 00:43:35;;;;;;;21.05;14.90;;;;;;;;;;5092318;28;20016;-71
2021/07/26 00:46:01;;;;;;;18.90;14.82;;;;;;;;;;5092306;28;20019;-70
2021/07/26 00:48:27;;;;;;;21.13;14.35;;;;;;;;;;5083172;28;20042;-72
2021/07/26 00:50:53;;;;;;;18.40;15.27;;;;;;;;;;5110904;28;20047;-70
2021/07/26 00:53:19;;;;;;;22.25;15.48;;;;;;;;;;5112181;28;20102;-70
2021/07/26 00:55:45;;;;;;;22.95;14.60;;;;;;;;;;5111176;28;20058;-70
2021/07/26 00:58:11;;;;;;;19.35;14.48;;;;;;;;;;5112572;28;20016;-71
2021/07/26 01:00:37;;;;;;;18.00;13.95;;;;;;;;;;5112477;28;20011;-70
2021/07/26 01:03:03;;;;;;;22.55;14.73;;;;;;;;;;5112219;28;20028;-71
2021/07/26 01:05:29;;;;;;;21.52;15.38;;;;;;;;;;5112329;28;20058;-70
2021/07/26 01:07:55;;;;;;;20.27;14.45;;;;;;;;;;5106289;28;20028;-71
2021/07/26 01:10:21;;;;;;;18.23;14.93;;;;;;;;;;5090296;28;20463;-70
2021/07/26 01:12:47;;;;;;;18.70;14.65;;;;;;;;;;5091819;28;20020;-70
2021/07/26 01:15:13;;;;;;;20.67;15.20;;;;;;;;;;5091269;28;20028;-70
2021/07/26 01:17:54;;;;;;;18.70;14.73;;;;;;;;;;5091194;28;20498;-71
2021/07/26 01:20:20;;;;;;;18.13;13.75;;;;;;;;;;5089691;28;20044;-71
2021/07/26 01:22:46;;;;;;;38.75;13.10;;;;;;;;;;5082833;28;20036;-71
2021/07/26 01:25:12;;;;;;;21.38;14.15;;;;;;;;;;5070807;28;20032;-70
2021/07/26 01:27:38;;;;;;;24.63;14.50;;;;;;;;;;5069382;28;20073;-70
2021/07/26 01:30:04;;;;;;;23.73;13.60;;;;;;;;;;5070705;28;20045;-71
2021/07/26 01:32:30;;;;;;;22.23;13.45;;;;;;;;;;5070908;28;20063;-72
2021/07/26 01:34:58;;;;;;;18.73;13.70;;;;;;;;;;5069407;28;20028;-71
2021/07/26 01:37:24;;;;;;;17.58;13.82;;;;;;;;;;5070612;28;20042;-72
2021/07/26 01:39:50;;;;;;;18.70;15.32;;;;;;;;;;5074089;28;20124;-71
2021/07/26 01:42:18;;;;;;;20.88;14.30;;;;;;;;;;5074372;28;20033;-71
2021/07/26 01:44:44;;;;;;;19.85;14.15;;;;;;;;;;5073338;28;20020;-71
2021/07/26 01:47:13;;;;;;;22.05;13.82;;;;;;;;;;5075149;28;20021;-71
2021/07/26 01:49:44;;;;;;;19.80;13.70;;;;;;;;;;5088199;28;20048;-71
2021/07/26 01:52:12;;;;;;;21.92;14.80;;;;;;;;;;5092996;28;20028;-71
2021/07/26 01:54:38;;;;;;;20.70;16.30;;;;;;;;;;5082041;28;20836;-71
2021/07/26 01:57:04;;;;;;;22.00;15.45;;;;;;;;;;5094677;28;20032;-70
2021/07/26 01:59:31;;;;;;;17.63;13.65;;;;;;;;;;5080753;28;20031;-70
2021/07/26 02:01:57;;;;;;;20.58;14.95;;;;;;;;;;5074229;28;20108;-70
2021/07/26 02:04:23;;;;;;;18.65;14.60;;;;;;;;;;5074199;28;20471;-71
2021/07/26 02:06:49;;;;;;;18.20;15.18;;;;;;;;;;5073995;28;20021;-71
2021/07/26 02:09:15;;;;;;;18.15;14.68;;;;;;;;;;5073916;28;20027;-71
2021/07/26 02:11:41;;;;;;;20.85;15.80;;;;;;;;;;5086340;28;20107;-71
2021/07/26 02:14:10;;;;;;;18.48;13.82;;;;;;;;;;5094161;28;20020;-71
2021/07/26 02:16:37;;;;;;;21.42;15.85;;;;;;;;;;5092728;28;20024;-72
2021/07/26 02:19:03;;;;;;;18.52;14.23;;;;;;;;;;5093772;28;20098;-70
2021/07/26 02:21:30;;;;;;;18.17;14.40;;;;;;;;;;5092886;28;20028;-70
2021/07/26 02:23:56;;;;;;;20.88;14.55;;;;;;;;;;5094487;28;20035;-71
2021/07/26 02:26:22;;;;;;;17.98;15.68;;;;;;;;;;5093454;28;20027;-71
2021/07/26 02:28:48;;;;;;;20.60;13.40;;;;;;;;;;5094680;28;20024;-71
2021/07/26 02:31:14;;;;;;;19.05;13.15;;;;;;;;;;5093052;28;20036;-70
2021/07/26 02:33:40;;;;;;;20.63;13.95;;;;;;;;;;5094425;28;20020;-70
2021/07/26 02:36:06;;;;;;;17.55;12.95;;;;;;;;;;5094554;28;20024;-70
2021/07/26 02:38:32;;;;;;;17.48;12.95;;;;;;;;;;5094505;28;20187;-71
2021/07/26 02:40:58;;;;;;;17.77;13.82;;;;;;;;;;5093160;28;20051;-71
2021/07/26 02:43:24;;;;;;;18.08;12.13;;;;;;;;;;5094517;28;20023;-71
2021/07/26 02:45:50;;;;;;;18.38;14.23;;;;;;;;;;5094381;28;20027;-71
2021/07/26 02:48:16;;;;;;;18.20;15.23;;;;;;;;;;5079825;28;20036;-71
2021/07/26 02:50:42;;;;;;;19.17;14.70;;;;;;;;;;5072898;28;20384;-71
2021/07/26 02:53:08;;;;;;;18.58;14.93;;;;;;;;;;5085019;28;20031;-72
2021/07/26 02:55:34;;;;;;;20.90;14.10;;;;;;;;;;5094187;28;20030;-71
2021/07/26 02:58:00;;;;;;;23.65;14.43;;;;;;;;;;5094173;28;20478;-71
2021/07/26 03:00:26;;;;;;;19.80;14.77;;;;;;;;;;5093835;28;20027;-71
2021/07/26 03:02:52;;;;;;;17.20;13.60;;;;;;;;;;5093780;28;20023;-71
2021/07/26 03:05:19;;;;;;;17.45;12.48;;;;;;;;;;5093904;28;20047;-71
2021/07/26 03:07:45;;;;;;;23.35;13.82;;;;;;;;;;5094184;28;20418;-71
2021/07/26 03:10:11;;;;;;;18.15;13.98;;;;;;;;;;5093767;28;20501;-71
2021/07/26 03:12:37;;;;;;;26.38;15.23;;;;;;;;;;5093969;28;20023;-71
2021/07/26 03:15:05;;;;;;;23.70;15.65;;;;;;;;;;5093948;28;20097;-70
2021/07/26 03:17:31;;;;;;;21.27;14.82;;;;;;;;;;5076356;28;20025;-71
2021/07/26 03:19:57;;;;;;;20.20;13.60;;;;;;;;;;5074087;28;20020;-71
2021/07/26 03:22:33;;;;;;;18.88;14.15;;;;;;;;;;5073644;28;20103;-71
2021/07/26 03:24:59;;;;;;;20.70;15.10;;;;;;;;;;5089000;28;20511;-71
2021/07/26 03:27:25;;;;;;;18.10;13.43;;;;;;;;;;5073458;28;20436;-71
2021/07/26 03:29:51;;;;;;;21.40;16.65;;;;;;;;;;5073200;28;20507;-71
2021/07/26 03:32:17;;;;;;;20.65;15.32;;;;;;;;;;5073593;28;20518;-71
2021/07/26 03:34:44;;;;;;;19.13;13.85;;;;;;;;;;5073422;28;20009;-71
2021/07/26 03:37:10;;;;;;;20.42;14.68;;;;;;;;;;5073273;28;20024;-71
2021/07/26 03:39:36;;;;;;;20.40;14.45;;;;;;;;;;5073075;28;20025;-71
2021/07/26 03:42:02;;;;;;;17.30;14.13;;;;;;;;;;5073022;28;20017;-71
2021/07/26 03:44:28;;;;;;;19.27;13.25;;;;;;;;;;5073044;28;20099;-71
2021/07/26 03:46:54;;;;;;;18.60;15.40;;;;;;;;;;5073115;28;20020;-71
2021/07/26 03:49:20;;;;;;;20.98;14.75;;;;;;;;;;5083775;28;20048;-71
2021/07/26 03:51:46;;;;;;;18.30;14.15;;;;;;;;;;5093409;28;20082;-71
2021/07/26 03:54:12;;;;;;;28.50;15.25;;;;;;;;;;5093263;28;20119;-71
2021/07/26 03:56:38;;;;;;;23.40;15.07;;;;;;;;;;5093193;28;20420;-72
2021/07/26 03:59:04;;;;;;;19.42;15.27;;;;;;;;;;5093012;28;20483;-72
2021/07/26 04:01:30;;;;;;;22.50;16.90;;;;;;;;;;5091721;28;20475;-72
2021/07/26 04:03:56;;;;;;;22.55;15.50;;;;;;;;;;5093083;28;20388;-72
2021/07/26 04:06:23;;;;;;;18.98;15.10;;;;;;;;;;5091700;28;20406;-71
2021/07/26 04:08:51;;;;;;;21.15;15.30;;;;;;;;;;5093014;28;20031;-72
2021/07/26 04:11:23;;;;;;;17.83;14.13;;;;;;;;;;5092921;28;20031;-72
2021/07/26 04:13:54;;;;;;;19.45;16.55;;;;;;;;;;5092733;28;20356;-72
2021/07/26 04:16:20;;;;;;;19.85;14.85;;;;;;;;;;5092819;28;20103;-71
2021/07/26 04:18:51;;;;;;;23.17;15.07;;;;;;;;;;5091317;28;20016;-72
2021/07/26 04:21:17;;;;;;;19.45;15.57;;;;;;;;;;5090678;28;20467;-72
2021/07/26 04:23:43;;;;;;;23.70;15.77;;;;;;;;;;5090624;28;20398;-71
2021/07/26 04:26:09;;;;;;;22.00;15.75;;;;;;;;;;5091906;28;20020;-71
2021/07/26 04:28:36;;;;;;;19.23;15.50;;;;;;;;;;5091770;28;20054;-72
2021/07/26 04:31:02;;;;;;;20.55;15.52;;;;;;;;;;5091566;28;20040;-71
2021/07/26 04:33:29;;;;;;;20.42;14.82;;;;;;;;;;5090467;28;20028;-71
2021/07/26 04:35:55;;;;;;;23.08;15.43;;;;;;;;;;5091894;28;20387;-71
2021/07/26 04:38:21;;;;;;;21.60;15.30;;;;;;;;;;5090562;28;20508;-72
2021/07/26 04:40:47;;;;;;;23.25;16.83;;;;;;;;;;5090489;28;20409;-71
2021/07/26 04:43:13;;;;;;;25.60;16.90;;;;;;;;;;5091837;28;20039;-71
2021/07/26 04:45:39;;;;;;;24.10;17.23;;;;;;;;;;5091040;28;20028;-72
2021/07/26 04:48:05;;;;;;;24.88;16.52;;;;;;;;;;5092044;28;20040;-71
2021/07/26 04:50:31;;;;;;;20.30;15.77;;;;;;;;;;5092372;28;20103;-71
2021/07/26 04:52:57;;;;;;;22.08;15.50;;;;;;;;;;5088903;28;20429;-71
2021/07/26 04:55:23;;;;;;;21.48;14.32;;;;;;;;;;5091927;28;20032;-71
2021/07/26 04:57:50;;;;;;;23.98;16.80;;;;;;;;;;5092263;28;20023;-71
2021/07/26 05:00:16;;;;;;;21.35;15.60;;;;;;;;;;5092061;28;20372;-71
2021/07/26 05:02:42;;;;;;;21.30;16.52;;;;;;;;;;5091474;28;20508;-71
2021/07/26 05:05:08;;;;;;;27.55;17.23;;;;;;;;;;5091725;28;20514;-72
2021/07/26 05:07:34;;;;;;;19.13;15.15;;;;;;;;;;5091883;28;20111;-72
2021/07/26 05:10:00;;;;;;;23.23;16.15;;;;;;;;;;5092009;28;20063;-72
2021/07/26 05:12:26;;;;;;;21.90;15.75;;;;;;;;;;5091701;28;20020;-72
2021/07/26 05:14:53;;;;;;;25.33;16.75;;;;;;;;;;5091753;28;20036;-73
2021/07/26 05:17:23;;;;;;;23.20;16.02;;;;;;;;;;5091968;28;20029;-72
2021/07/26 05:19:49;;;;;;;20.50;17.45;;;;;;;;;;5091258;28;20082;-72
2021/07/26 05:22:15;;;;;;;24.52;16.70;;;;;;;;;;5091227;28;20052;-72
2021/07/26 05:24:42;;;;;;;21.65;16.30;;;;;;;;;;5090200;28;20027;-72
2021/07/26 05:27:08;;;;;;;23.23;17.15;;;;;;;;;;5091534;28;20506;-72
2021/07/26 05:29:34;;;;;;;22.73;16.77;;;;;;;;;;5091614;28;20060;-72
2021/07/26 05:32:00;;;;;;;20.30;14.60;;;;;;;;;;5090197;28;20376;-72
2021/07/26 05:34:27;;;;;;;22.90;15.75;;;;;;;;;;5091542;28;20085;-72
2021/07/26 05:36:54;;;;;;;21.10;15.77;;;;;;;;;;5089914;28;20047;-73
2021/07/26 05:39:20;;;;;;;28.58;18.13;;;;;;;;;;5091471;28;20021;-72
2021/07/26 05:41:46;;;;;;;25.98;16.58;;;;;;;;;;5091286;28;20020;-72
2021/07/26 05:44:13;;;;;;;25.27;16.88;;;;;;;;;;5090307;28;20021;-71
2021/07/26 05:46:39;;;;;;;23.10;17.30;;;;;;;;;;5090630;28;20020;-71
2021/07/26 05:49:05;;;;;;;25.15;16.35;;;;;;;;;;5089179;28;20052;-71
2021/07/26 05:51:31;;;;;;;25.27;18.13;;;;;;;;;;5091308;28;20027;-71
2021/07/26 05:53:57;;;;;;;23.35;15.77;;;;;;;;;;5091854;28;20046;-71
2021/07/26 05:56:23;;;;;;;21.42;16.88;;;;;;;;;;5090543;28;20028;-71
2021/07/26 05:58:49;;;;;;;26.77;17.05;;;;;;;;;;5092007;28;20093;-71
2021/07/26 06:03:49;;;;;;;24.00;16.55;;;;;;;;;;5091778;28;20035;-71
2021/07/26 06:06:15;;;;;;;20.23;15.20;;;;;;;;;;5088172;28;20421;-72
2021/07/26 06:08:41;;;;;;;22.67;17.50;;;;;;;;;;5089736;28;20024;-71
2021/07/26 06:11:07;;;;;;;22.60;15.73;;;;;;;;;;5091503;28;20490;-71
2021/07/26 06:13:33;;;;;;;20.98;16.70;;;;;;;;;;5090180;28;20024;-71
2021/07/26 06:15:59;;;;;;;21.95;17.05;;;;;;;;;;5090185;28;20383;-71
2021/07/26 06:18:28;;;;;;;24.77;17.17;;;;;;;;;;5090325;28;20028;-71
2021/07/26 06:20:54;;;;;;;19.60;16.23;;;;;;;;;;5091522;28;20099;-72
2021/07/26 06:23:21;;;;;;;23.42;16.65;;;;;;;;;;5091545;28;20031;-71
2021/07/26 06:25:47;;;;;;;23.30;16.48;;;;;;;;;;5091788;28;20471;-71
2021/07/26 06:28:13;;;;;;;23.25;16.85;;;;;;;;;;5095119;28;20028;-71
2021/07/26 06:30:39;;;;;;;22.13;16.55;;;;;;;;;;5085782;28;20047;-71
2021/07/26 06:33:09;;;;;;;29.70;18.30;;;;;;;;;;5074705;28;20020;-71
2021/07/26 06:35:35;;;;;;;25.25;17.00;;;;;;;;;;5074632;28;20414;-72
2021/07/26 06:38:01;;;;;;;24.08;17.45;;;;;;;;;;5074642;28;20020;-71
2021/07/26 06:40:30;;;;;;;19.75;16.88;;;;;;;;;;5074716;28;20097;-71
2021/07/26 06:42:56;;;;;;;22.38;17.98;;;;;;;;;;5073310;28;20059;-71
2021/07/26 06:45:22;;;;;;;23.08;17.10;;;;;;;;;;5074706;28;20028;-72
2021/07/26 06:47:49;;;;;;;26.20;17.85;;;;;;;;;;5074447;28;20013;-72
2021/07/26 06:50:15;;;;;;;23.73;19.10;;;;;;;;;;5074449;28;20086;-71
2021/07/26 06:52:41;;;;;;;23.48;17.92;;;;;;;;;;5073523;28;20029;-71
2021/07/26 06:55:08;;;;;;;26.77;18.10;;;;;;;;;;5074737;28;20025;-71
2021/07/26 06:57:35;;;;;;;22.13;15.30;;;;;;;;;;5079547;28;20029;-71
2021/07/26 07:00:01;;;;;;;22.33;16.70;;;;;;;;;;5093263;28;20069;-71
2021/07/26 07:02:27;;;;;;;33.58;16.70;;;;;;;;;;5093809;28;20115;-71
2021/07/26 07:04:53;;;;;;;19.55;14.93;;;;;;;;;;5094113;28;20106;-72
2021/07/26 07:07:19;;;;;;;23.77;16.98;;;;;;;;;;5094481;28;20028;-72
2021/07/26 07:09:45;;;;;;;20.58;16.77;;;;;;;;;;5092894;28;20490;-71
2021/07/26 07:12:11;;;;;;;21.08;15.10;;;;;;;;;;5094376;28;20028;-72
2021/07/26 07:14:37;;;;;;;28.55;16.90;;;;;;;;;;5094472;28;20021;-71
2021/07/26 07:17:03;;;;;;;22.35;16.10;;;;;;;;;;5091623;28;20043;-73
2021/07/26 07:19:29;;;;;;;22.67;17.40;;;;;;;;;;5093219;28;20016;-71
2021/07/26 07:21:55;;;;;;;25.80;14.98;;;;;;;;;;5091281;28;20020;-72
2021/07/26 07:24:21;;;;;;;16.65;13.00;;;;;;;;;;5091650;28;20028;-71
2021/07/26 07:26:48;;;;;;;20.38;13.43;;;;;;;;;;5091684;28;20391;-71
2021/07/26 07:29:15;;;;;;;19.58;12.98;;;;;;;;;;5091601;28;20031;-71
2021/07/26 07:31:41;;;;;;;18.75;13.95;;;;;;;;;;5092191;28;20035;-71
2021/07/26 07:34:08;;;;;;;18.63;12.50;;;;;;;;;;5093849;28;20039;-71
2021/07/26 07:36:34;;;;;;;21.60;12.88;;;;;;;;;;5091872;28;20028;-71
2021/07/26 07:39:01;;;;;;;17.77;12.43;;;;;;;;;;5093688;28;20100;-71
2021/07/26 07:41:27;;;;;;;17.98;11.93;;;;;;;;;;5092303;28;20024;-71
2021/07/26 07:43:53;;;;;;;18.50;13.38;;;;;;;;;;5093526;28;20085;-71
2021/07/26 07:46:20;;;;;;;18.20;13.25;;;;;;;;;;5093523;28;20024;-72
2021/07/26 07:48:46;;;;;;;21.25;14.00;;;;;;;;;;5093512;28;20121;-71
2021/07/26 07:51:13;;;;;;;14.35;12.05;;;;;;;;;;5091946;28;20239;-71
2021/07/26 07:53:39;;;;;;;18.83;14.45;;;;;;;;;;5093353;28;20020;-72
2021/07/26 07:56:05;;;;;;;22.50;15.02;;;;;;;;;;5093048;28;20023;-72
2021/07/26 07:58:31;;;;;;;23.10;15.85;;;;;;;;;;5092982;28;20387;-72
2021/07/26 08:00:58;;;;;;;20.15;13.82;;;;;;;;;;5092886;28;20491;-72
2021/07/26 08:03:25;;;;;;;20.33;14.43;;;;;;;;;;5091912;28;20024;-71
2021/07/26 08:05:52;;;;;;;23.85;15.88;;;;;;;;;;5092180;28;20044;-71
2021/07/26 08:08:18;;;;;;;25.02;16.45;;;;;;;;;;5091800;28;20031;-72
2021/07/26 08:10:44;;;;;;;22.35;15.57;;;;;;;;;;5093047;28;20468;-72
2021/07/26 08:13:10;;;;;;;21.27;13.50;;;;;;;;;;5093073;28;20017;-72
2021/07/26 08:15:36;;;;;;;17.15;12.68;;;;;;;;;;5093084;28;20386;-72
2021/07/26 08:18:03;;;;;;;19.38;13.88;;;;;;;;;;5093176;28;20016;-72
2021/07/26 08:20:29;;;;;;;20.48;14.48;;;;;;;;;;5092906;28;20044;-72
2021/07/26 08:22:55;;;;;;;17.48;13.63;;;;;;;;;;5091698;28;20036;-72
2021/07/26 08:25:21;;;;;;;18.20;12.32;;;;;;;;;;5092962;28;20023;-71
2021/07/26 08:27:54;;;;;;;19.98;12.57;;;;;;;;;;5092836;28;20028;-72
2021/07/26 08:30:21;;;;;;;18.10;11.05;;;;;;;;;;5092324;28;20079;-72
2021/07/26 08:32:48;;;;;;;18.73;13.85;;;;;;;;;;5092478;28;20016;-72
2021/07/26 08:35:14;;;;;;;20.85;13.55;;;;;;;;;;5091316;28;20486;-72
2021/07/26 08:37:40;;;;;;;19.88;13.82;;;;;;;;;;5091331;28;20028;-71
2021/07/26 08:40:07;;;;;;;19.58;12.05;;;;;;;;;;5092567;28;20660;-71
2021/07/26 08:42:33;;;;;;;19.83;12.93;;;;;;;;;;5091059;28;20051;-71
2021/07/26 08:44:59;;;;;;;18.85;14.40;;;;;;;;;;5091329;28;20027;-71
2021/07/26 08:47:27;;;;;;;23.45;13.48;;;;;;;;;;5090659;28;20177;-72
2021/07/26 08:49:57;;;;;;;16.63;12.02;;;;;;;;;;5090767;28;20109;-70
2021/07/26 08:52:25;;;;;;;19.95;12.43;;;;;;;;;;5092248;28;20031;-71
2021/07/26 08:54:53;;;;;;;17.83;14.00;;;;;;;;;;5092428;28;20012;-71
2021/07/26 08:57:20;;;;;;;18.35;12.80;;;;;;;;;;5091089;28;20024;-71
2021/07/26 08:59:46;;;;;;;19.67;12.75;;;;;;;;;;5090899;28;20116;-71
2021/07/26 09:02:13;;;;;;;18.27;12.10;;;;;;;;;;5090217;28;20039;-72
2021/07/26 09:04:39;;;;;;;20.08;13.80;;;;;;;;;;5092482;28;20039;-71
2021/07/26 09:07:06;;;;;;;20.60;13.10;;;;;;;;;;5091079;28;20031;-71
2021/07/26 09:09:46;;;;;;;19.48;14.75;;;;;;;;;;5091763;28;20103;-71
2021/07/26 09:12:12;;;;;;;22.70;15.57;;;;;;;;;;5091928;28;20028;-72
2021/07/26 09:14:39;;;;;;;23.85;15.43;;;;;;;;;;5090810;28;20580;-72
2021/07/26 09:17:08;;;;;;;19.88;13.65;;;;;;;;;;5092114;28;20062;-72
2021/07/26 09:19:52;;;;;;;19.17;12.55;;;;;;;;;;5090671;28;20040;-71
2021/07/26 09:22:35;;;;;;;19.42;12.60;;;;;;;;;;5090642;28;20207;-71
2021/07/26 09:25:01;;;;;;;;;;;;;;;;;;5088598;28;20028;-72
2021/07/26 09:27:27;;;;;;;15.93;10.98;;;;;;;;;;5071082;28;19912;-71
2021/07/26 09:29:53;;;;;;;19.48;12.32;;;;;;;;;;5091869;28;20476;-71
2021/07/26 09:32:19;;;;;;;20.63;13.13;;;;;;;;;;5091737;28;20383;-71
2021/07/26 09:34:46;;;;;;;18.52;12.77;;;;;;;;;;5092053;28;20371;-71
2021/07/26 09:37:20;;;;;;;18.00;11.88;;;;;;;;;;5090668;28;20016;-71
2021/07/26 09:39:46;;;;;;;23.17;12.75;;;;;;;;;;5091830;28;20027;-71
2021/07/26 09:42:26;;;;;;;18.33;12.18;;;;;;;;;;5091585;28;20043;-71
2021/07/26 09:44:53;;;;;;;19.35;11.77;;;;;;;;;;5091910;28;20015;-71
2021/07/26 09:47:20;;;;;;;14.90;10.40;;;;;;;;;;5091903;28;20098;-72
2021/07/26 09:49:46;;;;;;;17.27;12.20;;;;;;;;;;5090439;28;20093;-72
2021/07/26 09:52:12;;;;;;;18.88;10.57;;;;;;;;;;5090494;28;20056;-72
2021/07/26 09:54:46;;;;;;;19.25;10.15;;;;;;;;;;5091699;28;20095;-72
2021/07/26 09:57:15;;;;;;;19.45;10.60;;;;;;;;;;5091906;28;20081;-72
2021/07/26 09:59:44;;;;;;;16.17;11.30;;;;;;;;;;5093323;28;20021;-72
2021/07/26 10:02:13;;;;;;;14.88;11.30;;;;;;;;;;5095367;28;20035;-72
2021/07/26 10:04:40;;;;;;;16.13;9.90;;;;;;;;;;5094314;28;20024;-71
2021/07/26 10:07:06;;;;;;;14.05;9.88;;;;;;;;;;5094354;28;20111;-71
2021/07/26 10:09:32;;;;;;;15.38;10.38;;;;;;;;;;5094079;28;20024;-71
2021/07/26 10:11:58;;;;;;;16.48;10.55;;;;;;;;;;5095310;28;20024;-72
2021/07/26 10:14:24;;;;;;;15.95;10.20;;;;;;;;;;5094067;28;20035;-72
2021/07/26 10:16:50;;;;;;;15.43;9.77;;;;;;;;;;5095209;28;20081;-72
2021/07/26 10:19:16;;;;;;;16.23;10.50;;;;;;;;;;5090143;28;20545;-72
2021/07/26 10:21:42;;;;;;;15.27;9.40;;;;;;;;;;5075014;28;20024;-72
2021/07/26 10:24:09;;;;;;;14.32;10.00;;;;;;;;;;5075026;28;20037;-72
2021/07/26 10:26:37;;;;;;;21.10;10.50;;;;;;;;;;5074642;28;20401;-72
2021/07/26 10:29:03;;;;;;;12.80;9.30;;;;;;;;;;5074751;28;20038;-72
2021/07/26 10:31:36;;;;;;;16.75;9.60;;;;;;;;;;5074530;28;20115;-72
2021/07/26 10:34:02;;;;;;;15.88;10.45;;;;;;;;;;5073465;28;20190;-72
2021/07/26 10:36:43;;;;;;;16.55;10.15;;;;;;;;;;5074757;28;20102;-71
2021/07/26 10:39:19;;;;;;;14.25;9.95;;;;;;;;;;5073459;28;20024;-71
2021/07/26 10:41:45;;;;;;;13.55;9.77;;;;;;;;;;5074605;28;20017;-71
2021/07/26 10:44:17;;;;;;;17.60;11.13;;;;;;;;;;5072970;28;20175;-71
2021/07/26 10:46:56;;;;;;;14.95;10.15;;;;;;;;;;5085211;28;20497;-71
2021/07/26 10:49:45;;;;;;;18.85;12.90;;;;;;;;;;5091844;28;20044;-71
2021/07/26 10:52:26;;;;;;;16.55;9.80;;;;;;;;;;5094211;28;20040;-71
2021/07/26 10:54:58;;;;;;;14.10;9.20;;;;;;;;;;5094377;28;20061;-72
2021/07/26 10:57:39;;;;;;;18.20;10.63;;;;;;;;;;5094359;28;20056;-71
2021/07/26 11:00:08;;;;;;;18.98;10.85;;;;;;;;;;5094370;28;20028;-71
2021/07/26 11:02:38;;;;;;;19.63;12.70;;;;;;;;;;5093023;28;20031;-71
2021/07/26 11:05:23;;;;;;;17.15;11.00;;;;;;;;;;5092951;28;20024;-71
2021/07/26 11:07:49;;;;;;;13.77;10.07;;;;;;;;;;5094451;28;20031;-72
2021/07/26 11:10:33;;;;;;;20.67;12.65;;;;;;;;;;5093889;28;20028;-72
2021/07/26 11:12:59;;;;;;;19.05;10.27;;;;;;;;;;5093976;28;20081;-72
2021/07/26 11:15:25;;;;;;;13.82;9.43;;;;;;;;;;5093974;28;20012;-71
2021/07/26 11:18:14;;;;;;;18.15;9.80;;;;;;;;;;5079181;28;20029;-70
2021/07/26 11:20:59;;;;;;;14.15;9.65;;;;;;;;;;5073536;28;20043;-74
2021/07/26 11:23:40;;;;;;;20.88;10.30;;;;;;;;;;5072485;28;20491;-71
2021/07/26 11:26:13;;;;;;;16.05;10.60;;;;;;;;;;5073752;28;20024;-72
2021/07/26 11:28:39;;;;;;;16.88;10.73;;;;;;;;;;5080245;28;20038;-72
2021/07/26 11:31:05;;;;;;;15.20;9.48;;;;;;;;;;5092191;28;20059;-71
2021/07/26 11:33:33;;;;;;;19.23;11.20;;;;;;;;;;5092529;28;20016;-71
2021/07/26 11:35:59;;;;;;;18.67;9.05;;;;;;;;;;5093884;28;20391;-71
2021/07/26 11:38:25;;;;;;;15.05;9.65;;;;;;;;;;5093857;28;20023;-70
2021/07/26 11:40:51;;;;;;;19.02;10.45;;;;;;;;;;5093801;28;20020;-70
2021/07/26 11:43:32;;;;;;;17.38;9.73;;;;;;;;;;5093673;28;20098;-70
2021/07/26 11:45:58;;;;;;;15.70;9.27;;;;;;;;;;5093646;28;20043;-70
2021/07/26 11:48:28;;;;;;;17.05;11.07;;;;;;;;;;5092317;28;20035;-71
2021/07/26 11:50:54;;;;;;;16.92;10.25;;;;;;;;;;5093458;28;20084;-71
2021/07/26 11:53:34;;;;;;;19.80;10.45;;;;;;;;;;5092097;28;20023;-71
2021/07/26 11:56:00;;;;;;;25.50;12.15;;;;;;;;;;5093269;28;20028;-70
2021/07/26 11:58:27;;;;;;;20.33;11.70;;;;;;;;;;5092050;28;20059;-71
2021/07/26 12:00:54;;;;;;;16.65;10.25;;;;;;;;;;5093337;28;20024;-71
2021/07/26 12:03:21;;;;;;;15.70;10.55;;;;;;;;;;5093244;28;20025;-71
2021/07/26 12:05:48;;;;;;;17.90;10.02;;;;;;;;;;5093310;28;20027;-72
2021/07/26 12:08:17;;;;;;;12.38;7.55;;;;;;;;;;5093279;28;20020;-71
2021/07/26 12:10:44;;;;;;;13.18;8.27;;;;;;;;;;5092952;28;20034;-71
2021/07/26 12:13:15;;;;;;;13.07;8.43;;;;;;;;;;5093286;28;20021;-71
2021/07/26 12:15:43;;;;;;;17.70;10.48;;;;;;;;;;5091991;28;20024;-71
2021/07/26 12:18:16;;;;;;;15.23;8.10;;;;;;;;;;5091810;28;20016;-70
2021/07/26 12:20:43;;;;;;;15.23;9.20;;;;;;;;;;5090495;28;20055;-71
2021/07/26 12:23:13;;;;;;;16.98;9.60;;;;;;;;;;5092643;28;20013;-70
2021/07/26 12:25:47;;;;;;;18.05;8.38;;;;;;;;;;5092534;28;20034;-72
2021/07/26 12:28:13;;;;;;;15.38;7.57;;;;;;;;;;5086344;28;20031;-71
2021/07/26 12:30:41;;;;;;;11.15;7.60;;;;;;;;;;5081251;28;20032;-71
2021/07/26 12:33:08;;;;;;;15.27;7.40;;;;;;;;;;5074035;28;20025;-72
2021/07/26 12:35:35;;;;;;;13.32;8.50;;;;;;;;;;5080689;28;20004;-71
2021/07/26 12:38:02;;;;;;;14.43;7.50;;;;;;;;;;5086944;28;20028;-73
2021/07/26 12:40:28;;;;;;;14.57;7.45;;;;;;;;;;5089227;28;20016;-72
2021/07/26 12:43:04;;;;;;;15.25;7.35;;;;;;;;;;5092131;28;20056;-72
2021/07/26 12:45:30;;;;;;;13.10;6.55;;;;;;;;;;5092243;28;20012;-72
2021/07/26 12:47:58;;;;;;;12.25;6.45;;;;;;;;;;5072328;28;20451;-72
2021/07/26 12:50:24;;;;;;;11.73;6.40;;;;;;;;;;5075106;28;20043;-71
2021/07/26 12:52:51;;;;;;;16.67;7.40;;;;;;;;;;5091157;28;20510;-71
2021/07/26 12:55:17;;;;;;;17.33;6.35;;;;;;;;;;5092347;28;20489;-71
2021/07/26 12:57:43;;;;;;;14.05;6.57;;;;;;;;;;5092372;28;20103;-71
2021/07/26 13:00:10;;;;;;;13.18;6.30;;;;;;;;;;5092571;28;20467;-71
2021/07/26 13:02:36;;;;;;;12.65;8.18;;;;;;;;;;5092319;28;20028;-71
2021/07/26 13:05:05;;;;;;;12.55;7.38;;;;;;;;;;5092345;28;20099;-72
2021/07/26 13:07:31;;;;;;;13.23;7.57;;;;;;;;;;5092480;28;20031;-71
2021/07/26 13:09:57;;;;;;;17.77;7.50;;;;;;;;;;5091120;28;20081;-72
2021/07/26 13:12:24;;;;;;;17.67;7.50;;;;;;;;;;5092324;28;20080;-71
2021/07/26 13:14:50;;;;;;;18.27;7.40;;;;;;;;;;5092176;28;20467;-71
2021/07/26 13:17:17;;;;;;;15.70;7.30;;;;;;;;;;5091988;28;20051;-72
2021/07/26 13:19:43;;;;;;;14.90;6.63;;;;;;;;;;5083795;28;20023;-72
2021/07/26 13:22:09;;;;;;;12.35;5.97;;;;;;;;;;5070586;28;20023;-72
2021/07/26 13:24:35;;;;;;;19.05;7.22;;;;;;;;;;5071867;28;20025;-72
2021/07/26 13:27:02;;;;;;;14.70;6.72;;;;;;;;;;5072090;28;20008;-72
2021/07/26 13:29:28;;;;;;;13.85;6.30;;;;;;;;;;5071662;28;20042;-72
2021/07/26 13:31:54;;;;;;;14.80;6.82;;;;;;;;;;5071485;28;20032;-72
2021/07/26 13:34:20;;;;;;;15.77;7.63;;;;;;;;;;5072842;28;20095;-72
2021/07/26 13:36:47;;;;;;;13.85;5.88;;;;;;;;;;5074673;28;20024;-71
2021/07/26 13:39:14;;;;;;;13.90;6.07;;;;;;;;;;5075889;28;20105;-72
2021/07/26 13:41:41;;;;;;;12.98;7.05;;;;;;;;;;5075687;28;20056;-72
2021/07/26 13:44:07;;;;;;;15.70;5.57;;;;;;;;;;5074300;28;20120;-71
2021/07/26 13:46:33;;;;;;;10.93;6.07;;;;;;;;;;5074317;28;20020;-71
2021/07/26 13:49:00;;;;;;;20.10;8.38;;;;;;;;;;5074003;28;20131;-71
2021/07/26 13:51:26;;;;;;;10.45;7.05;;;;;;;;;;5075249;28;20069;-72
2021/07/26 13:53:52;;;;;;;11.82;6.70;;;;;;;;;;5075523;28;20017;-71
2021/07/26 13:56:18;;;;;;;20.38;9.23;;;;;;;;;;5075366;28;20107;-71
2021/07/26 13:58:44;;;;;;;12.68;6.63;;;;;;;;;;5075495;28;20417;-70
2021/07/26 14:01:11;;;;;;;15.48;7.50;;;;;;;;;;5075243;28;20400;-71
2021/07/26 14:03:37;;;;;;;19.52;7.80;;;;;;;;;;5075370;28;20028;-72
2021/07/26 14:06:03;;;;;;;19.17;8.82;;;;;;;;;;5074776;28;20028;-71
2021/07/26 14:08:29;;;;;;;16.35;8.32;;;;;;;;;;5073811;28;20025;-71
2021/07/26 14:10:55;;;;;;;12.02;6.68;;;;;;;;;;5074737;28;20597;-71
2021/07/26 14:13:21;;;;;;;12.00;6.88;;;;;;;;;;5074962;28;20099;-71
2021/07/26 14:15:47;;;;;;;11.82;6.80;;;;;;;;;;5075007;28;20028;-71
2021/07/26 14:18:16;;;;;;;11.65;7.60;;;;;;;;;;5075095;28;20056;-71
2021/07/26 14:20:42;;;;;;;11.60;6.55;;;;;;;;;;5073710;28;20610;-72
2021/07/26 14:23:08;;;;;;;18.92;8.73;;;;;;;;;;5074780;28;20039;-71
2021/07/26 14:25:34;;;;;;;14.38;6.88;;;;;;;;;;5073616;28;20097;-71